CYEV

Inuvik Mike Zubko Airport

Inuvik, Northwest Territories, Canada
METAR CYEV 240400Z 12003KT 050V180 15SM BKN130 M05/M06 A2966 RMK AC6 SLP053
Observed Flight Rules
Oct-24 @ 04:00 UTC (an hour ago) Visual Flight Rules
Wind Visibility Clouds
120° at 3 knots 15 miles
  • Broken at 13,000' AGL
Temperatures Readings
Current -5°C / 23°F
Dewpoint -6°C / 21°F
Humidity 93%
Altimeter 29.66" Hg
Pressure 1005.3 hPa
Elevation 68
METAR CYEV 240400Z 12003KT 050V180 15SM BKN130 M05/M06 A2966 RMK AC6 SLP053
Observed Flight Rules
Oct-24 @ 04:00 UTC
(an hour ago)
VFR
Wind Visibility
120° at 3 knots 15 miles
Clouds
  • Broken at 13,000' AGL
Temperature Dewpoint
-5°C / 23°F -6°C / 21°F
Humidity Altimeter Pressure
93% 29.66" Hg 1005.3 hPa